Time;durP1;ratioP1;P1;durP2;ratioP2;P2;SDS_P1;SDS_P2;PMS_P1;PMS_P2;Temp;Humidity;BMP_temperature;BMP_pressure;BME280_temperature;BME280_humidity;BME280_pressure;Samples;Min_cycle;Max_cycle;Signal;HPM_P1;HPM_P2
2022/02/08 00:00:58;;;;;;;17.73;5.25;;;;;;;6.70;100.00;102580.03;5221542;28;20501;-74
2022/02/08 00:03:29;;;;;;;20.88;5.55;;;;;;;6.71;100.00;102573.94;5224876;28;20782;-74
2022/02/08 00:08:35;;;;;;;17.90;5.75;;;;;;;6.69;100.00;102574.88;5221497;28;20060;-74
2022/02/08 00:11:06;;;;;;;24.15;6.43;;;;;;;6.65;100.00;102578.53;5223772;28;20419;-74
2022/02/08 00:13:38;;;;;;;22.10;5.95;;;;;;;6.64;100.00;102579.44;5225731;28;20533;-74
2022/02/08 00:16:09;;;;;;;26.27;6.40;;;;;;;6.61;100.00;102569.16;5220534;28;20034;-74
2022/02/08 00:18:41;;;;;;;22.10;6.57;;;;;;;6.61;100.00;102566.53;5205873;28;20144;-75
2022/02/08 00:21:12;;;;;;;21.48;6.72;;;;;;;6.61;100.00;102564.78;5203013;28;20037;-76
2022/02/08 00:23:43;;;;;;;24.23;7.50;;;;;;;6.58;100.00;102559.69;5223241;28;20382;-74
2022/02/08 00:26:15;;;;;;;20.98;6.80;;;;;;;6.57;100.00;102556.25;5222272;28;20049;-72
2022/02/08 00:28:46;;;;;;;25.45;8.20;;;;;;;6.50;100.00;102553.94;5221018;28;20036;-73
2022/02/08 00:31:18;;;;;;;21.92;8.50;;;;;;;6.48;100.00;102548.81;5223514;28;20062;-73
2022/02/08 00:33:50;;;;;;;27.43;8.17;;;;;;;6.54;100.00;102545.09;5223960;28;20060;-73
2022/02/08 00:36:22;;;;;;;26.83;10.15;;;;;;;6.53;100.00;102549.47;5223388;28;20364;-74
2022/02/08 00:38:54;;;;;;;20.60;8.43;;;;;;;6.52;100.00;102537.38;5222204;28;20762;-73
2022/02/08 00:41:26;;;;;;;21.70;9.32;;;;;;;6.53;100.00;102544.25;5222604;28;20021;-75
2022/02/08 00:44:03;;;;;;;23.00;9.25;;;;;;;6.52;100.00;102533.91;5224828;28;20038;-74
2022/02/08 00:49:10;;;;;;;21.95;8.65;;;;;;;6.57;100.00;102547.59;5224067;28;20036;-74
2022/02/08 00:51:45;;;;;;;30.15;8.75;;;;;;;6.54;100.00;102539.91;5223269;28;20119;-74
2022/02/08 00:54:17;;;;;;;31.65;8.57;;;;;;;6.46;100.00;102532.41;5224973;28;20080;-74
2022/02/08 00:56:49;;;;;;;27.73;8.38;;;;;;;6.58;100.00;102542.31;5206399;28;20029;-74
2022/02/08 00:59:20;;;;;;;31.85;9.25;;;;;;;6.60;100.00;102533.59;5202748;28;20029;-74
2022/02/08 01:01:51;;;;;;;25.52;8.18;;;;;;;6.62;100.00;102543.03;5223835;28;20030;-74
2022/02/08 01:04:25;;;;;;;27.83;8.77;;;;;;;6.67;100.00;102535.06;5224040;28;20475;-74
2022/02/08 01:06:58;;;;;;;24.35;8.70;;;;;;;6.64;100.00;102535.19;5224282;28;20054;-73
2022/02/08 01:12:03;;;;;;;;;;;;;;;7.06;100.00;102535.97;5222714;28;20390;-74
2022/02/08 01:14:41;;;;;;;22.70;8.45;;;;;;;6.70;100.00;102529.69;5223442;28;19929;-74
2022/02/08 01:17:14;;;;;;;24.25;8.30;;;;;;;6.79;100.00;102537.16;5213831;28;20026;-76
2022/02/08 01:19:54;;;;;;;21.85;8.18;;;;;;;6.83;100.00;102536.09;5221773;28;20018;-74
2022/02/08 01:22:26;;;;;;;24.00;8.70;;;;;;;6.83;100.00;102530.88;5224684;28;20022;-74
2022/02/08 01:24:57;;;;;;;24.40;8.55;;;;;;;6.86;100.00;102529.91;5225627;28;20679;-75
2022/02/08 01:27:31;;;;;;;21.40;8.57;;;;;;;6.85;100.00;102529.06;5224264;28;20028;-74
2022/02/08 01:30:12;;;;;;;20.27;9.43;;;;;;;6.86;100.00;102533.38;5229054;28;20072;-74
2022/02/08 01:38:17;;;;;;;24.48;8.55;;;;;;;6.98;100.00;102535.44;5226832;28;20146;-75
2022/02/08 01:48:49;;;;;;;22.63;10.07;;;;;;;7.01;100.00;102537.94;5226539;28;20033;-74
2022/02/08 01:51:20;;;;;;;21.58;10.40;;;;;;;7.05;100.00;102539.50;5223722;28;20104;-74
2022/02/08 01:53:51;;;;;;;21.55;10.25;;;;;;;7.10;100.00;102547.09;5225324;28;20594;-74
2022/02/08 01:56:23;;;;;;;24.25;11.27;;;;;;;7.14;100.00;102545.22;5226991;28;20491;-74
2022/02/08 01:58:54;;;;;;;25.17;11.77;;;;;;;7.12;100.00;102532.22;5226201;28;20449;-74
2022/02/08 02:01:25;;;;;;;26.80;11.68;;;;;;;7.21;100.00;102547.50;5223306;28;20029;-74
2022/02/08 02:03:57;;;;;;;22.52;11.63;;;;;;;7.25;100.00;102543.00;5226754;28;20025;-74
2022/02/08 02:06:28;;;;;;;18.75;11.07;;;;;;;7.30;100.00;102551.44;5206458;28;20053;-74
2022/02/08 02:08:59;;;;;;;25.17;11.13;;;;;;;7.29;100.00;102547.16;5224500;28;20036;-74
2022/02/08 02:11:31;;;;;;;28.75;12.35;;;;;;;7.31;100.00;102553.13;5224925;28;20029;-74
2022/02/08 02:14:03;;;;;;;29.92;12.15;;;;;;;7.34;100.00;102544.34;5207338;28;20090;-74
2022/02/08 02:19:08;;;;;;;25.52;11.68;;;;;;;7.37;100.00;102546.81;5221116;28;20068;-74
2022/02/08 02:21:39;;;;;;;26.38;11.43;;;;;;;7.37;100.00;102537.22;5223346;28;20033;-74
2022/02/08 02:24:11;;;;;;;26.50;11.75;;;;;;;7.43;100.00;102536.13;5224025;28;20034;-74
2022/02/08 02:26:42;;;;;;;26.83;12.68;;;;;;;7.42;100.00;102534.41;5223859;28;20491;-74
2022/02/08 02:29:15;;;;;;;21.65;11.23;;;;;;;7.47;100.00;102538.53;5222437;28;20048;-74
2022/02/08 02:31:47;;;;;;;;;;;;;;;7.84;100.00;102536.88;5226286;28;20106;-74
2022/02/08 02:34:22;;;;;;;21.67;10.82;;;;;;;7.49;100.00;102541.91;5226378;28;19929;-74
2022/02/08 02:36:54;;;;;;;22.10;10.52;;;;;;;7.49;100.00;102535.84;5208900;28;20033;-74
2022/02/08 02:39:27;;;;;;;18.30;10.65;;;;;;;7.52;100.00;102541.75;5223629;28;20026;-75
2022/02/08 02:41:58;;;;;;;18.80;9.90;;;;;;;7.54;100.00;102531.28;5215378;28;20080;-74
2022/02/08 02:44:30;;;;;;;17.83;9.43;;;;;;;7.43;100.00;102516.13;5225331;28;20558;-74
2022/02/08 02:47:01;;;;;;;19.25;10.20;;;;;;;7.53;100.00;102534.78;5222853;28;20083;-74
2022/02/08 02:49:33;;;;;;;19.17;10.18;;;;;;;7.57;100.00;102544.16;5226519;28;20025;-74
2022/02/08 02:52:07;;;;;;;21.65;9.85;;;;;;;7.57;100.00;102544.16;5224499;28;20087;-74
2022/02/08 02:54:38;;;;;;;18.30;9.95;;;;;;;7.58;100.00;102530.22;5221676;28;20458;-74
2022/02/08 02:57:12;;;;;;;15.68;9.25;;;;;;;7.60;100.00;102524.94;5222654;28;20034;-74
2022/02/08 02:59:46;;;;;;;23.40;9.30;;;;;;;7.54;100.00;102521.69;5224651;28;20021;-74
2022/02/08 03:02:33;;;;;;;18.35;9.30;;;;;;;7.61;100.00;102524.84;5205752;28;20033;-74
2022/02/08 03:05:28;;;;;;;14.52;8.90;;;;;;;7.65;100.00;102536.00;5220388;28;20032;-74
2022/02/08 03:19:19;;;;;;;15.82;8.93;;;;;;;7.74;100.00;102536.44;5221725;28;20655;-76
2022/02/08 03:21:51;;;;;;;21.50;9.90;;;;;;;7.69;100.00;102538.41;5223829;28;20033;-75
2022/02/08 03:24:22;;;;;;;20.10;9.48;;;;;;;7.73;100.00;102536.50;5225681;28;20482;-72
2022/02/08 03:26:53;;;;;;;19.48;9.20;;;;;;;7.76;100.00;102542.41;5224396;28;20079;-74
2022/02/08 03:29:25;;;;;;;16.67;10.07;;;;;;;7.73;100.00;102541.72;5223785;28;20033;-74
2022/02/08 03:31:56;;;;;;;16.65;9.05;;;;;;;7.76;100.00;102541.56;5224961;28;20026;-73
2022/02/08 03:34:27;;;;;;;18.88;9.05;;;;;;;7.76;100.00;102545.00;5221787;28;20465;-74
2022/02/08 03:36:58;;;;;;;16.30;8.35;;;;;;;7.77;100.00;102536.28;5223445;28;20057;-74
2022/02/08 03:39:35;;;;;;;14.65;7.63;;;;;;;7.76;100.00;102538.97;5225756;28;20033;-74
2022/02/08 03:42:20;;;;;;;16.92;7.75;;;;;;;7.80;100.00;102543.13;5225615;28;20030;-74
2022/02/08 03:44:52;;;;;;;15.95;7.78;;;;;;;7.78;100.00;102542.34;5226046;28;20099;-74
2022/02/08 03:47:25;;;;;;;13.55;7.13;;;;;;;7.85;100.00;102558.59;5223854;28;20113;-75
2022/02/08 03:49:56;;;;;;;19.33;6.85;;;;;;;7.80;100.00;102553.56;5222006;28;20490;-74
2022/02/08 03:52:27;;;;;;;13.40;7.10;;;;;;;7.79;100.00;102547.50;5222529;28;20026;-74
2022/02/08 03:54:58;;;;;;;11.25;6.70;;;;;;;7.77;100.00;102544.13;5222573;28;20121;-75
2022/02/08 03:57:30;;;;;;;12.02;6.20;;;;;;;7.84;100.00;102549.91;5205079;28;20064;-75
2022/02/08 04:00:03;;;;;;;13.60;6.45;;;;;;;7.85;100.00;102554.22;5224494;28;20061;-74
2022/02/08 04:02:42;;;;;;;;;;;;;;;8.22;100.00;102560.31;5206647;28;20022;-74
2022/02/08 04:05:24;;;;;;;13.70;5.90;;;;;;;7.93;100.00;102559.91;5221564;28;19921;-74
2022/02/08 04:08:00;;;;;;;8.47;5.63;;;;;;;7.90;100.00;102544.38;5223458;28;20156;-74
2022/02/08 04:10:32;;;;;;;11.43;6.38;;;;;;;7.89;100.00;102554.91;5223108;28;20075;-74
2022/02/08 04:13:12;;;;;;;10.68;6.35;;;;;;;7.91;100.00;102561.72;5222152;28;20345;-74
2022/02/08 04:16:01;;;;;;;12.45;6.53;;;;;;;7.94;100.00;102559.00;5221541;28;20072;-75
2022/02/08 04:32:42;;;;;;;11.05;7.50;;;;;;;8.03;100.00;102548.13;5220465;28;20112;-74
2022/02/08 04:35:42;;;;;;;10.32;7.40;;;;;;;8.02;100.00;102551.66;5222792;28;20498;-74
2022/02/08 04:38:26;;;;;;;10.85;7.22;;;;;;;8.00;100.00;102537.00;5222304;28;20079;-74
2022/02/08 04:41:06;;;;;;;10.50;7.63;;;;;;;7.99;100.00;102538.75;5205694;28;20045;-75
2022/02/08 04:43:53;;;;;;;10.75;7.35;;;;;;;7.94;100.00;102527.66;5221972;28;20617;-75
2022/02/08 04:46:42;;;;;;;14.18;7.82;;;;;;;7.98;100.00;102531.81;5220737;28;20511;-74
2022/02/08 04:49:13;;;;;;;9.57;7.38;;;;;;;7.94;100.00;102521.59;5219238;28;20056;-74
2022/02/08 04:51:49;;;;;;;11.00;7.78;;;;;;;7.88;100.00;102520.16;5222215;28;20502;-74
2022/02/08 04:54:28;;;;;;;9.75;7.88;;;;;;;8.00;100.00;102543.06;5226060;28;20033;-74
2022/02/08 04:57:12;;;;;;;11.07;8.20;;;;;;;7.95;100.00;102536.34;5208556;28;20030;-74
2022/02/08 05:26:41;;;;;;;9.95;8.32;;;;;;;8.03;100.00;102548.13;5222880;28;20103;-74
2022/02/08 05:37:35;;;;;;;11.77;8.60;;;;;;;8.22;100.00;102527.22;5226745;28;20025;-73
2022/02/08 05:45:08;;;;;;;10.98;9.30;;;;;;;8.24;100.00;102524.53;5227081;28;20501;-74
2022/02/08 05:47:43;;;;;;;11.82;9.23;;;;;;;8.27;100.00;102516.56;5212041;28;20383;-75
2022/02/08 05:55:35;;;;;;;12.55;10.85;;;;;;;8.29;100.00;102514.69;5226295;28;20030;-74
2022/02/08 05:58:06;;;;;;;11.93;9.63;;;;;;;8.34;100.00;102517.97;5227211;28;20079;-73
2022/02/08 06:00:39;;;;;;;12.20;10.38;;;;;;;8.36;100.00;102515.25;5224085;28;20025;-74
2022/02/08 06:03:10;;;;;;;13.63;10.32;;;;;;;8.34;100.00;102510.13;5227503;28;20065;-73
2022/02/08 06:05:42;;;;;;;11.20;9.85;;;;;;;8.37;100.00;102501.28;5227003;28;20481;-74
2022/02/08 06:08:13;;;;;;;14.10;11.15;;;;;;;8.32;100.00;102509.34;5224457;28;20025;-75
2022/02/08 06:11:13;;;;;;;17.15;11.43;;;;;;;8.38;100.00;102516.06;5226679;28;20381;-75
2022/02/08 06:13:44;;;;;;;13.02;11.02;;;;;;;8.37;100.00;102512.63;5226136;28;20029;-74
2022/02/08 06:16:18;;;;;;;13.65;11.20;;;;;;;8.37;100.00;102514.31;5225673;28;20018;-76
2022/02/08 06:18:49;;;;;;;13.65;11.30;;;;;;;8.37;100.00;102506.50;5222043;28;20041;-75
2022/02/08 06:21:20;;;;;;;16.23;11.55;;;;;;;8.41;100.00;102515.91;5221656;28;20041;-75
2022/02/08 06:23:52;;;;;;;14.38;11.82;;;;;;;8.38;100.00;102516.06;5225882;28;20506;-74
2022/02/08 06:26:24;;;;;;;14.18;11.52;;;;;;;8.37;100.00;102516.94;5225914;28;20104;-74
2022/02/08 06:29:21;;;;;;;15.83;11.63;;;;;;;8.47;100.00;102523.44;5222301;28;20072;-73
2022/02/08 06:31:47;;;;;;;14.43;11.73;;;;;;;8.44;100.00;102527.03;5225074;28;20056;-73
2022/02/08 06:34:22;;;;;;;13.95;12.20;;;;;;;8.45;100.00;102523.53;5224486;28;20030;-74
2022/02/08 06:36:59;;;;;;;16.75;13.32;;;;;;;8.43;100.00;102525.38;5225636;28;20297;-73
2022/02/08 06:39:35;;;;;;;17.20;13.75;;;;;;;8.49;100.00;102532.91;5223950;28;20060;-74
2022/02/08 06:42:09;;;;;;;17.42;13.55;;;;;;;8.49;100.00;102538.13;5226787;28;20079;-74
2022/02/08 06:44:40;;;;;;;18.25;12.90;;;;;;;8.49;100.00;102529.47;5220286;28;20029;-74
2022/02/08 06:47:12;;;;;;;18.35;13.77;;;;;;;8.54;100.00;102530.06;5223147;28;20032;-74
2022/02/08 06:49:43;;;;;;;16.50;13.32;;;;;;;8.52;100.00;102534.50;5223833;28;20057;-74
2022/02/08 06:52:14;;;;;;;19.65;14.25;;;;;;;8.55;100.00;102533.53;5221029;28;20029;-73
2022/02/08 06:54:48;;;;;;;21.92;15.45;;;;;;;8.54;100.00;102535.28;5223290;28;20049;-74
2022/02/08 06:57:20;;;;;;;17.65;15.18;;;;;;;8.56;100.00;102540.44;5219796;28;20517;-74
2022/02/08 06:59:54;;;;;;;19.90;15.80;;;;;;;8.55;100.00;102530.91;5223474;28;20041;-74
2022/02/08 07:02:25;;;;;;;19.10;15.80;;;;;;;8.58;100.00;102539.44;5220299;28;20029;-75
2022/02/08 07:04:56;;;;;;;20.17;17.05;;;;;;;8.55;100.00;102539.59;5218555;28;20132;-74
2022/02/08 07:07:28;;;;;;;19.98;17.85;;;;;;;8.53;100.00;102544.91;5217693;28;20128;-74
2022/02/08 07:09:59;;;;;;;21.35;17.27;;;;;;;8.58;100.00;102549.03;5220694;28;20558;-74
2022/02/08 07:12:30;;;;;;;23.52;17.85;;;;;;;8.55;100.00;102557.88;5220963;28;20372;-74
2022/02/08 07:15:10;;;;;;;21.75;18.08;;;;;;;8.56;100.00;102548.25;5221814;28;20043;-74
2022/02/08 07:17:42;;;;;;;22.70;18.05;;;;;;;8.58;100.00;102546.44;5224578;28;20471;-74
2022/02/08 07:20:13;;;;;;;22.38;18.50;;;;;;;8.61;100.00;102559.34;5221067;28;20470;-74
2022/02/08 07:22:45;;;;;;;20.67;17.77;;;;;;;8.65;100.00;102550.44;5224632;28;20036;-75
2022/02/08 07:25:17;;;;;;;24.33;18.80;;;;;;;8.60;100.00;102548.06;5222622;28;20021;-74
2022/02/08 07:27:48;;;;;;;22.15;18.80;;;;;;;8.68;100.00;102547.69;5210081;28;20573;-74
2022/02/08 07:30:19;;;;;;;23.55;18.58;;;;;;;8.71;100.00;102558.84;5214113;28;20025;-74
2022/02/08 07:32:54;;;;;;;23.85;18.23;;;;;;;8.74;100.00;102568.25;5223952;28;20523;-74
2022/02/08 07:35:31;;;;;;;23.73;17.75;;;;;;;8.75;100.00;102562.97;5220581;28;20034;-75
2022/02/08 07:38:06;;;;;;;21.17;17.80;;;;;;;8.74;100.00;102556.03;5220017;28;20041;-74
2022/02/08 07:41:35;;;;;;;23.98;18.25;;;;;;;8.80;100.00;102567.13;5218901;28;20513;-73
2022/02/08 07:43:36;;;;;;;23.15;19.33;;;;;;;8.83;100.00;102569.59;5222406;28;20029;-74
2022/02/08 07:46:07;;;;;;;25.17;19.43;;;;;;;8.85;100.00;102579.03;5219749;28;20044;-74
2022/02/08 07:48:39;;;;;;;20.55;17.52;;;;;;;8.88;100.00;102576.28;5219190;28;20030;-74
2022/02/08 07:51:13;;;;;;;20.20;17.20;;;;;;;8.89;100.00;102575.34;5222009;28;20410;-74
2022/02/08 07:53:44;;;;;;;23.58;16.98;;;;;;;8.95;100.00;102585.50;5218735;28;20383;-75
2022/02/08 07:56:16;;;;;;;20.42;16.15;;;;;;;8.92;100.00;102571.75;5219137;28;20036;-74
2022/02/08 07:58:47;;;;;;;21.50;15.80;;;;;;;8.96;100.00;102576.72;5204973;28;20483;-74
2022/02/08 08:01:19;;;;;;;22.30;15.27;;;;;;;8.98;100.00;102568.81;5198053;28;20033;-74
2022/02/08 08:03:50;;;;;;;20.05;15.27;;;;;;;8.99;100.00;102571.34;5219764;28;20033;-73
2022/02/08 08:06:22;;;;;;;21.48;16.60;;;;;;;8.99;100.00;102573.97;5217170;28;20065;-74
2022/02/08 08:08:54;;;;;;;21.35;15.60;;;;;;;8.99;100.00;102587.03;5221273;28;20025;-74
2022/02/08 08:11:27;;;;;;;16.92;14.05;;;;;;;9.01;100.00;102586.94;5218453;28;20540;-74
2022/02/08 08:22:17;;;;;;;20.08;13.93;;;;;;;9.10;100.00;102590.88;5177793;28;20053;-73
2022/02/08 08:24:49;;;;;;;19.83;15.02;;;;;;;9.11;100.00;102589.97;5219465;28;20051;-73
2022/02/08 08:27:20;;;;;;;18.42;13.70;;;;;;;9.14;100.00;102601.09;5217274;28;20030;-74
2022/02/08 08:29:51;;;;;;;21.02;14.10;;;;;;;9.14;100.00;102601.09;5216992;28;20102;-76
2022/02/08 08:32:23;;;;;;;20.13;13.50;;;;;;;9.16;100.00;102596.63;5219453;28;21229;-77
2022/02/08 08:34:55;;;;;;;19.17;13.05;;;;;;;9.21;100.00;102591.19;5219676;28;20140;-77
2022/02/08 08:37:26;;;;;;;19.15;13.52;;;;;;;9.26;100.00;102600.47;5220232;28;20538;-76
2022/02/08 08:40:03;;;;;;;16.77;11.85;;;;;;;9.30;100.00;102595.94;5218831;28;20026;-76
2022/02/08 08:42:45;;;;;;;18.92;12.90;;;;;;;9.35;100.00;102600.94;5219175;28;20033;-77
2022/02/08 08:53:47;;;;;;;18.92;11.02;;;;;;;9.48;100.00;102597.59;5206834;28;20406;-76
2022/02/08 08:56:19;;;;;;;14.95;10.68;;;;;;;9.49;100.00;102601.06;5219257;28;20029;-76
2022/02/08 08:58:50;;;;;;;19.42;10.05;;;;;;;9.50;100.00;102598.34;5219435;28;20030;-76
2022/02/08 09:01:21;;;;;;;15.48;10.07;;;;;;;9.56;100.00;102606.81;5218449;28;20022;-74
2022/02/08 09:03:53;;;;;;;14.60;9.00;;;;;;;9.61;100.00;102620.50;5219850;28;20356;-74
2022/02/08 09:06:24;;;;;;;18.50;9.93;;;;;;;9.62;100.00;102612.59;5220397;28;20072;-73
2022/02/08 09:08:56;;;;;;;14.95;9.93;;;;;;;9.65;100.00;102611.56;5221084;28;20033;-74
2022/02/08 09:14:11;;;;;;;14.80;8.85;;;;;;;9.71;100.00;102622.56;5221483;28;20116;-74
2022/02/08 09:16:56;;;;;;;14.93;8.73;;;;;;;9.76;100.00;102622.31;5223241;28;20033;-73
2022/02/08 09:22:29;;;;;;;16.63;9.35;;;;;;;9.83;100.00;102626.31;5220337;28;20223;-74
2022/02/08 09:25:20;;;;;;;17.42;9.00;;;;;;;9.83;100.00;102628.91;5218062;28;20033;-75
2022/02/08 09:28:19;;;;;;;15.25;8.45;;;;;;;9.85;100.00;102620.97;5216155;28;20076;-74
2022/02/08 09:30:57;;;;;;;18.13;8.15;;;;;;;9.93;100.00;102629.28;5213560;28;20345;-74
2022/02/08 09:33:29;;;;;;;12.63;7.68;;;;;;;9.98;100.00;102627.25;5214294;28;20099;-74
2022/02/08 09:36:00;;;;;;;12.90;7.85;;;;;;;9.98;100.00;102604.53;5190570;28;20714;-74
2022/02/08 09:38:34;;;;;;;14.20;7.85;;;;;;;10.10;100.00;102623.13;5196674;28;20030;-73
2022/02/08 09:41:09;;;;;;;13.30;7.20;;;;;;;10.09;100.00;102622.28;5205254;28;20072;-73
2022/02/08 09:43:40;;;;;;;16.67;6.47;;;;;;;10.11;100.00;102620.41;5220681;28;20033;-74
2022/02/08 09:46:12;;;;;;;13.50;6.70;;;;;;;10.11;100.00;102619.56;5223065;28;20030;-74
2022/02/08 09:51:17;;;;;;;8.18;5.65;;;;;;;10.25;100.00;102603.97;5221755;28;20455;-74
2022/02/08 09:53:54;;;;;;;14.32;5.80;;;;;;;10.26;100.00;102610.06;5204443;28;20040;-73
2022/02/08 09:56:27;;;;;;;10.30;5.82;;;;;;;10.27;100.00;102602.13;5221451;28;20033;-73
2022/02/08 09:58:59;;;;;;;12.68;5.35;;;;;;;10.28;100.00;102610.84;5222732;28;20025;-73
2022/02/08 10:01:30;;;;;;;10.97;5.10;;;;;;;10.32;100.00;102601.88;5221101;28;20026;-73
2022/02/08 10:04:02;;;;;;;12.38;5.45;;;;;;;10.38;100.00;102612.00;5223213;28;20311;-74
2022/02/08 10:06:33;;;;;;;9.90;5.40;;;;;;;10.42;100.00;102609.16;5220869;28;20046;-73
2022/02/08 10:09:08;;;;;;;8.63;4.28;;;;;;;10.46;100.00;102610.66;5204167;28;20025;-73
2022/02/08 10:11:49;;;;;;;9.75;4.78;;;;;;;10.45;100.00;102608.97;5222422;28;20033;-74
2022/02/08 10:14:25;;;;;;;10.68;4.40;;;;;;;10.51;100.00;102614.78;5225113;28;20032;-74
2022/02/08 10:22:34;;;;;;;13.40;4.72;;;;;;;10.66;100.00;102611.31;5221734;28;20044;-74
2022/02/08 10:25:08;;;;;;;9.10;3.67;;;;;;;10.70;100.00;102605.78;5223135;28;20037;-73
2022/02/08 10:27:44;;;;;;;7.38;4.10;;;;;;;10.78;100.00;102609.75;5221605;28;20808;-74
2022/02/08 10:38:46;;;;;;;8.00;2.67;;;;;;;10.94;100.00;102605.31;5216981;28;20042;-74
2022/02/08 10:41:21;;;;;;;10.90;3.50;;;;;;;10.96;100.00;102600.84;5220168;28;21171;-74
2022/02/08 10:44:02;;;;;;;10.07;3.90;;;;;;;11.02;100.00;102604.84;5225640;28;20382;-73
2022/02/08 10:46:36;;;;;;;8.57;3.03;;;;;;;11.09;100.00;102604.41;5224884;28;20025;-74
2022/02/08 10:49:10;;;;;;;11.18;3.35;;;;;;;11.13;100.00;102607.69;5221763;28;20036;-74
2022/02/08 10:51:50;;;;;;;8.18;3.65;;;;;;;11.18;100.00;102606.50;5217807;28;20064;-74
2022/02/08 10:54:40;;;;;;;11.50;3.35;;;;;;;11.21;100.00;102610.72;5222421;28;20033;-73
2022/02/08 10:57:17;;;;;;;9.93;2.80;;;;;;;11.26;100.00;102613.91;5222414;28;20041;-74
2022/02/08 10:59:56;;;;;;;7.93;2.92;;;;;;;11.28;100.00;102605.94;5224148;28;20616;-73
2022/02/08 11:02:34;;;;;;;9.15;3.05;;;;;;;11.37;100.00;102600.16;5220163;28;20057;-74
2022/02/08 11:05:28;;;;;;;8.57;3.50;;;;;;;11.46;100.00;102599.59;5224830;28;20124;-73
2022/02/08 11:11:21;;;;;;;9.57;2.78;;;;;;;11.45;100.00;102593.50;5225113;28;20041;-74
2022/02/08 11:17:47;;;;;;;10.52;3.20;;;;;;;11.68;100.00;102594.72;5221702;28;20076;-73
2022/02/08 11:28:23;;;;;;;6.97;2.38;;;;;;;11.80;100.00;102590.50;5220356;28;20554;-74
2022/02/08 11:31:20;;;;;;;8.82;2.42;;;;;;;11.75;100.00;102587.31;5220037;28;20033;-74
2022/02/08 11:45:35;;;;;;;9.82;2.53;;;;;;;11.80;100.00;102582.63;5220829;28;20368;-74
2022/02/08 11:48:44;;;;;;;6.90;2.28;;;;;;;11.88;100.00;102576.91;5219324;28;20038;-74
2022/02/08 12:07:37;;;;;;;5.63;1.83;;;;;;;11.96;100.00;102582.53;5219126;28;20129;-74
2022/02/08 12:10:41;;;;;;;12.70;2.47;;;;;;;12.03;100.00;102561.97;5217637;28;20038;-74
2022/02/08 12:13:48;;;;;;;8.15;2.10;;;;;;;12.04;100.00;102577.63;5213580;28;20103;-73
2022/02/08 12:31:14;;;;;;;6.28;1.70;;;;;;;11.98;100.00;102574.56;5223246;28;20034;-74
2022/02/08 12:33:54;;;;;;;8.68;2.92;;;;;;;12.00;100.00;102572.69;5214186;28;20049;-74
2022/02/08 12:54:11;;;;;;;7.97;2.17;;;;;;;12.44;100.00;102579.50;5219506;28;20033;-74
2022/02/08 12:56:56;;;;;;;6.35;2.10;;;;;;;12.35;100.00;102578.28;5220825;28;20026;-75
2022/02/08 13:05:20;;;;;;;7.18;1.83;;;;;;;12.33;100.00;102564.44;5220320;28;20088;-74
2022/02/08 14:02:28;;;;;;;6.95;2.13;;;;;;;11.85;100.00;102595.50;5220827;28;20403;-75
2022/02/08 14:05:43;;;;;;;8.85;2.03;;;;;;;11.73;100.00;102593.59;5221823;28;20461;-75
2022/02/08 14:08:13;;;;;;;6.18;1.77;;;;;;;11.77;100.00;102590.69;5222992;28;20058;-74
2022/02/08 14:11:45;;;;;;;6.20;1.70;;;;;;;11.77;100.00;102590.69;5206998;28;20387;-75
2022/02/08 14:16:38;;;;;;;5.88;1.73;;;;;;;11.67;100.00;102606.19;5223870;28;20048;-75
2022/02/08 14:19:31;;;;;;;6.18;2.08;;;;;;;11.77;100.00;102601.19;5222890;28;20061;-75
2022/02/08 14:22:34;;;;;;;7.55;2.00;;;;;;;11.78;100.00;102605.53;5205774;28;20045;-75
2022/02/08 14:25:21;;;;;;;5.85;1.73;;;;;;;11.79;100.00;102603.72;5220437;28;20030;-76
2022/02/08 14:31:02;;;;;;;7.57;2.20;;;;;;;11.76;100.00;102589.00;5223398;28;20152;-75
2022/02/08 14:36:52;;;;;;;10.75;2.45;;;;;;;11.79;100.00;102594.06;5219848;28;20048;-75
2022/02/08 15:07:55;;;;;;;11.00;3.53;;;;;;;11.58;100.00;102590.13;5218135;28;21434;-76
2022/02/08 15:10:21;;;;;;;9.75;3.30;;;;;;;11.60;100.00;102594.34;5222469;28;20056;-75
2022/02/08 15:12:56;;;;;;;7.97;3.10;;;;;;;11.55;100.00;102595.56;5220750;28;20036;-75
2022/02/08 15:18:01;;;;;;;7.40;3.97;;;;;;;11.50;100.00;102584.50;5222127;28;20056;-75
2022/02/08 15:20:33;;;;;;;12.30;4.88;;;;;;;11.54;100.00;102594.72;5221756;28;20030;-75
2022/02/08 15:23:08;;;;;;;7.38;4.18;;;;;;;11.54;100.00;102599.13;5218293;28;20454;-75
2022/02/08 15:25:39;;;;;;;9.95;5.15;;;;;;;11.54;100.00;102599.13;5218742;28;20412;-75
2022/02/08 15:28:11;;;;;;;9.60;5.20;;;;;;;11.55;100.00;102600.81;5222438;28;20556;-76
2022/02/08 15:30:43;;;;;;;11.25;5.57;;;;;;;11.51;100.00;102599.31;5220375;28;20025;-75
2022/02/08 15:33:14;;;;;;;11.75;6.00;;;;;;;11.50;100.00;102608.13;5203268;28;20060;-75
2022/02/08 15:35:46;;;;;;;11.70;5.95;;;;;;;11.43;100.00;102608.50;5220088;28;20041;-75
2022/02/08 15:38:17;;;;;;;12.77;6.43;;;;;;;11.51;100.00;102605.41;5220381;28;20048;-75
2022/02/08 15:40:49;;;;;;;11.52;6.07;;;;;;;11.49;100.00;102614.31;5222251;28;20041;-75
2022/02/08 15:43:20;;;;;;;9.32;5.95;;;;;;;11.46;100.00;102604.84;5220310;28;20090;-75
2022/02/08 15:45:56;;;;;;;11.32;6.07;;;;;;;11.43;100.00;102591.91;5203756;28;20022;-75
2022/02/08 15:48:27;;;;;;;10.27;6.07;;;;;;;11.42;100.00;102604.19;5219340;28;20026;-75
2022/02/08 15:51:04;;;;;;;6.63;5.25;;;;;;;11.47;100.00;102605.69;5219676;28;20029;-75
2022/02/08 15:53:53;;;;;;;11.73;5.70;;;;;;;11.48;100.00;102594.25;5221395;28;20053;-75
2022/02/08 16:09:48;;;;;;;18.23;6.00;;;;;;;11.49;100.00;102590.72;5219125;28;20034;-75
2022/02/08 16:15:19;;;;;;;11.40;4.63;;;;;;;11.40;100.00;102577.22;5219281;28;20037;-74
2022/02/08 16:18:16;;;;;;;9.13;4.03;;;;;;;11.40;100.00;102585.09;5217092;28;20037;-74
2022/02/08 16:26:39;;;;;;;13.68;3.83;;;;;;;11.39;100.00;102588.63;5164362;28;20814;-74
2022/02/08 16:29:33;;;;;;;7.97;2.85;;;;;;;11.39;100.00;102587.78;5200686;28;20045;-74
2022/02/08 16:54:25;;;;;;;7.25;1.75;;;;;;;11.29;100.00;102607.63;5227359;28;20518;-74
2022/02/08 16:57:15;;;;;;;6.88;1.73;;;;;;;11.26;100.00;102599.97;5223621;28;20119;-74
2022/02/08 16:59:47;;;;;;;5.95;1.35;;;;;;;11.24;100.00;102601.81;5225982;28;20034;-74
2022/02/08 17:02:21;;;;;;;3.58;1.48;;;;;;;11.19;100.00;102610.81;5226858;28;20694;-74
2022/02/08 17:04:52;;;;;;;4.38;1.50;;;;;;;11.20;100.00;102616.91;5221235;28;20068;-74
2022/02/08 17:07:24;;;;;;;7.43;2.13;;;;;;;11.20;100.00;102628.22;5219736;28;20498;-74
2022/02/08 17:10:02;;;;;;;6.82;1.73;;;;;;;11.20;100.00;102632.63;5223824;28;20120;-74
2022/02/08 17:12:40;;;;;;;6.05;2.10;;;;;;;11.16;100.00;102631.13;5225430;28;20028;-74
2022/02/08 17:15:40;;;;;;;7.50;1.80;;;;;;;11.10;100.00;102627.09;5223377;28;20036;-74
2022/02/08 17:46:16;;;;;;;6.55;3.08;;;;;;;11.09;100.00;102653.41;5227217;28;20120;-74
2022/02/08 17:48:48;;;;;;;6.60;3.33;;;;;;;11.06;100.00;102650.94;5225373;28;20033;-74
2022/02/08 17:51:19;;;;;;;6.93;2.92;;;;;;;11.04;100.00;102658.91;5223086;28;20057;-74
2022/02/08 17:53:50;;;;;;;7.43;3.13;;;;;;;11.02;100.00;102654.69;5224626;28;20479;-74
2022/02/08 17:56:22;;;;;;;9.63;3.03;;;;;;;11.07;100.00;102668.41;5205552;28;20061;-74
2022/02/08 17:58:53;;;;;;;5.82;2.80;;;;;;;11.01;100.00;102664.34;5225014;28;20037;-74
2022/02/08 18:01:25;;;;;;;4.90;2.30;;;;;;;10.99;100.00;102670.63;5228065;28;20111;-74
2022/02/08 18:03:56;;;;;;;4.65;2.47;;;;;;;10.98;100.00;102674.16;5223794;28;20116;-74
2022/02/08 18:06:28;;;;;;;4.70;2.30;;;;;;;10.96;100.00;102672.47;5227920;28;20053;-74
2022/02/08 18:09:02;;;;;;;6.00;2.40;;;;;;;10.93;100.00;102671.81;5224020;28;20460;-74
2022/02/08 18:11:38;;;;;;;6.45;2.10;;;;;;;10.93;100.00;102661.31;5224318;28;20402;-74
2022/02/08 18:14:14;;;;;;;5.88;2.00;;;;;;;10.87;100.00;102654.66;5221722;28;20072;-74